Orbital elements of COSMOS 2251 DEB
| Launched | 15 June 1993 |
| Flight ended | – |
| Launch site | Plesetsk Missile and Space Complex, Russia |
| Owner | Commonwealth of Independent States (former USSR) |
| NORAD ID | 34344 |
| Date fetched |
Epoch osculation |
Inc. [°] |
Ecc. | RA asc node [hr] |
Arg Peri. [°] |
Mean anom [°] |
Mean motion [rev/day] |
Abs. mag |
| Date fetched |
Epoch osculation |
Inc. [°] |
Ecc. | RA asc node [hr] |
Arg Peri. [°] |
Mean anom [°] |
Mean motion [rev/day] |
Abs. mag |
| 2026 May 03 17:57 | 2026 Apr 30 08:43:34 | 73.9755 | 0.01537 | 14.8433 | 15.8849 | 49.0579 | 14.17388 | – |
| 2026 May 02 17:57 | 2026 Apr 30 08:43:34 | 73.9755 | 0.01537 | 14.8433 | 15.8849 | 49.0579 | 14.17388 | – |
| 2026 May 01 17:56 | 2026 Apr 30 08:43:34 | 73.9755 | 0.01537 | 14.8433 | 15.8849 | 49.0579 | 14.17388 | – |
| 2026 Apr 30 17:56 | 2026 Apr 30 08:43:34 | 73.9755 | 0.01537 | 14.8433 | 15.8849 | 49.0579 | 14.17388 | – |
| 2026 Apr 29 17:57 | 2026 Apr 24 06:52:01 | 73.9761 | 0.01538 | 15.5678 | 28.3673 | 49.0579 | 14.17388 | – |
| 2026 Apr 28 17:56 | 2026 Apr 24 06:52:01 | 73.9761 | 0.01538 | 15.5678 | 28.3673 | 49.0579 | 14.17388 | – |
| 2026 Apr 27 17:58 | 2026 Apr 24 06:52:01 | 73.9761 | 0.01538 | 15.5678 | 28.3673 | 49.0579 | 14.17388 | – |
| 2026 Apr 26 17:58 | 2026 Apr 24 06:52:01 | 73.9761 | 0.01538 | 15.5678 | 28.3673 | 49.0579 | 14.17388 | – |
| 2026 Apr 25 17:58 | 2026 Apr 24 06:52:01 | 73.9761 | 0.01538 | 15.5678 | 28.3673 | 49.0579 | 14.17388 | – |
| 2026 Apr 24 17:59 | 2026 Apr 24 06:52:01 | 73.9761 | 0.01538 | 15.5678 | 28.3673 | 49.0579 | 14.17388 | – |
| 2026 Apr 23 17:57 | 2026 Apr 19 08:18:11 | 73.9757 | 0.01540 | 16.1566 | 38.4289 | 49.0579 | 14.17388 | – |
| 2026 Apr 22 17:57 | 2026 Apr 19 08:18:11 | 73.9757 | 0.01540 | 16.1566 | 38.4289 | 49.0579 | 14.17388 | – |
| 2026 Apr 21 17:57 | 2026 Apr 19 08:18:11 | 73.9757 | 0.01540 | 16.1566 | 38.4289 | 49.0579 | 14.17388 | – |
| 2026 Apr 20 17:57 | 2026 Apr 19 08:18:11 | 73.9757 | 0.01540 | 16.1566 | 38.4289 | 49.0579 | 14.17388 | – |
| 2026 Apr 19 17:58 | 2026 Apr 19 08:18:11 | 73.9757 | 0.01540 | 16.1566 | 38.4289 | 49.0579 | 14.17388 | – |
| 2026 Apr 18 17:56 | 2026 Apr 12 21:01:41 | 73.9758 | 0.01543 | 16.9278 | 51.5366 | 49.0579 | 14.17388 | – |
| 2026 Apr 16 17:57 | 2026 Apr 12 21:01:41 | 73.9758 | 0.01543 | 16.9278 | 51.5366 | 49.0579 | 14.17388 | – |
| 2026 Apr 14 17:57 | 2026 Apr 12 21:01:41 | 73.9758 | 0.01543 | 16.9278 | 51.5366 | 49.0579 | 14.17388 | – |
| 2026 Apr 13 17:57 | 2026 Apr 12 21:01:41 | 73.9758 | 0.01543 | 16.9278 | 51.5366 | 49.0579 | 14.17388 | – |
| 2026 Apr 12 17:57 | 2026 Apr 08 15:15:36 | 73.9767 | 0.01545 | 17.4332 | 60.1606 | 49.0579 | 14.17388 | – |
| 2026 Apr 11 17:57 | 2026 Apr 08 15:15:36 | 73.9767 | 0.01545 | 17.4332 | 60.1606 | 49.0579 | 14.17388 | – |
| 2026 Apr 10 17:58 | 2026 Apr 08 15:15:36 | 73.9767 | 0.01545 | 17.4332 | 60.1606 | 49.0579 | 14.17388 | – |
| 2026 Apr 09 18:01 | 2026 Apr 08 15:15:36 | 73.9767 | 0.01545 | 17.4332 | 60.1606 | 49.0579 | 14.17388 | – |
| 2026 Apr 08 17:57 | 2026 Apr 08 15:15:36 | 73.9767 | 0.01545 | 17.4332 | 60.1606 | 49.0579 | 14.17388 | – |
| 2026 Apr 07 17:57 | 2026 Apr 02 06:29:08 | 73.9755 | 0.01549 | 18.1920 | 73.0184 | 49.0579 | 14.17388 | – |
| 2026 Apr 06 17:57 | 2026 Apr 02 06:29:08 | 73.9755 | 0.01549 | 18.1920 | 73.0184 | 49.0579 | 14.17388 | – |